Terminal Aerodrome Forecast
Issued by NWS

Home | Current Version | Previous Version | Text Only | Print | Product List | Glossary Off
Versions: 1 2 3 4 5 6 7 8 9 10 11 12 13 14 15 16 17 18 19 20 21 22

000
FTUS43 KMPX 221122
TAFAXN
TAF
KAXN 221122Z 2212/2312 08004KT P6SM BKN110
     FM221900 36007KT P6SM BKN045
     FM222200 34010KT P6SM VCSH OVC030
     FM222300 34011KT P6SM VCSH OVC015
     FM230300 35011KT P6SM OVC006
     FM230900 36010KT P6SM BKN035=

USA.gov is the U.S. government's official web portal to all federal, state and local government web resources and services.